Monroe, Utah
Current Conditions -  °F | °C
As of 5:52 AM on Friday 19 Dec 2014 (Local Time) from KMLF Reporting Station
Clear Clear  
Wind Chill: 17°   Ceiling: Unl
Heat Index: 24°   Visibility: 10mi
Dew Point: 20°   Wind: 6mph
Humidity: 84%   Direction: 180°S
Pressure: 30.18"   Gusts: NA
Location:  38.63°N, 112.12°W
Report Text: KMLF 191252Z AUTO 18005KT 10SM CLR M04/M07 A3018 RMK AO2 SLP238 T10441067 TSNO
Loading
Personal Weather Stations






























Interactive Weather Map New forecast layout! Learn more

10-Day Weather Forecast

Advertisements
Track Severe Weather on mobile